sensor_id;sensor_type;location;lat;lon;timestamp;P1;durP1;ratioP1;P2;durP2;ratioP2
71513;SDS011;59335;46.652;21.272;2023-02-18T00:02:35;16.00;;;11.13;;
71513;SDS011;59335;46.652;21.272;2023-02-18T00:05:37;15.48;;;11.10;;
71513;SDS011;59335;46.652;21.272;2023-02-18T00:08:41;15.93;;;10.70;;
71513;SDS011;59335;46.652;21.272;2023-02-18T00:11:45;16.98;;;11.32;;
71513;SDS011;59335;46.652;21.272;2023-02-18T00:14:47;17.10;;;11.32;;
71513;SDS011;59335;46.652;21.272;2023-02-18T00:17:50;17.37;;;11.13;;
71513;SDS011;59335;46.652;21.272;2023-02-18T00:20:53;15.10;;;10.63;;
71513;SDS011;59335;46.652;21.272;2023-02-18T00:23:55;16.55;;;10.98;;
71513;SDS011;59335;46.652;21.272;2023-02-18T00:26:58;15.50;;;10.98;;
71513;SDS011;59335;46.652;21.272;2023-02-18T00:30:01;16.02;;;10.80;;
71513;SDS011;59335;46.652;21.272;2023-02-18T00:33:09;14.63;;;10.10;;
71513;SDS011;59335;46.652;21.272;2023-02-18T00:36:13;15.77;;;10.52;;
71513;SDS011;59335;46.652;21.272;2023-02-18T00:39:18;15.10;;;11.30;;
71513;SDS011;59335;46.652;21.272;2023-02-18T00:42:20;14.18;;;10.45;;
71513;SDS011;59335;46.652;21.272;2023-02-18T00:45:23;14.15;;;10.48;;
71513;SDS011;59335;46.652;21.272;2023-02-18T00:48:26;15.87;;;10.57;;
71513;SDS011;59335;46.652;21.272;2023-02-18T00:51:29;16.00;;;10.15;;
71513;SDS011;59335;46.652;21.272;2023-02-18T00:54:32;15.85;;;10.35;;
71513;SDS011;59335;46.652;21.272;2023-02-18T00:57:35;16.05;;;10.60;;
71513;SDS011;59335;46.652;21.272;2023-02-18T01:00:38;15.60;;;10.65;;
71513;SDS011;59335;46.652;21.272;2023-02-18T01:03:41;15.17;;;10.30;;
71513;SDS011;59335;46.652;21.272;2023-02-18T01:06:44;14.88;;;10.55;;
71513;SDS011;59335;46.652;21.272;2023-02-18T01:09:48;16.17;;;10.65;;
71513;SDS011;59335;46.652;21.272;2023-02-18T01:12:51;14.88;;;9.63;;
71513;SDS011;59335;46.652;21.272;2023-02-18T01:15:53;13.43;;;9.45;;
71513;SDS011;59335;46.652;21.272;2023-02-18T01:19:04;15.00;;;10.33;;
71513;SDS011;59335;46.652;21.272;2023-02-18T01:22:07;13.88;;;10.10;;
71513;SDS011;59335;46.652;21.272;2023-02-18T01:25:10;15.77;;;9.88;;
71513;SDS011;59335;46.652;21.272;2023-02-18T01:28:14;14.23;;;9.82;;
71513;SDS011;59335;46.652;21.272;2023-02-18T01:31:18;14.40;;;9.45;;
71513;SDS011;59335;46.652;21.272;2023-02-18T01:34:21;14.90;;;10.07;;
71513;SDS011;59335;46.652;21.272;2023-02-18T01:37:24;14.23;;;9.88;;
71513;SDS011;59335;46.652;21.272;2023-02-18T01:40:28;14.88;;;10.00;;
71513;SDS011;59335;46.652;21.272;2023-02-18T01:43:32;13.27;;;9.82;;
71513;SDS011;59335;46.652;21.272;2023-02-18T01:46:36;14.32;;;9.85;;
71513;SDS011;59335;46.652;21.272;2023-02-18T01:49:39;14.53;;;9.70;;
71513;SDS011;59335;46.652;21.272;2023-02-18T01:52:43;14.32;;;9.45;;
71513;SDS011;59335;46.652;21.272;2023-02-18T01:55:46;13.77;;;10.00;;
71513;SDS011;59335;46.652;21.272;2023-02-18T01:58:52;14.13;;;9.90;;
71513;SDS011;59335;46.652;21.272;2023-02-18T02:01:57;13.43;;;9.30;;
71513;SDS011;59335;46.652;21.272;2023-02-18T02:05:04;13.03;;;9.07;;
71513;SDS011;59335;46.652;21.272;2023-02-18T02:08:07;15.30;;;9.80;;
71513;SDS011;59335;46.652;21.272;2023-02-18T02:11:14;16.30;;;10.10;;
71513;SDS011;59335;46.652;21.272;2023-02-18T02:21:01;13.53;;;9.23;;
71513;SDS011;59335;46.652;21.272;2023-02-18T02:27:52;13.55;;;9.48;;
71513;SDS011;59335;46.652;21.272;2023-02-18T02:37:47;13.67;;;9.40;;
71513;SDS011;59335;46.652;21.272;2023-02-18T02:44:12;14.77;;;9.45;;
71513;SDS011;59335;46.652;21.272;2023-02-18T02:47:26;13.43;;;9.25;;
71513;SDS011;59335;46.652;21.272;2023-02-18T02:50:44;12.88;;;8.57;;
71513;SDS011;59335;46.652;21.272;2023-02-18T02:53:51;12.63;;;8.70;;
71513;SDS011;59335;46.652;21.272;2023-02-18T03:04:06;14.70;;;9.35;;
71513;SDS011;59335;46.652;21.272;2023-02-18T03:14:33;13.02;;;8.80;;
71513;SDS011;59335;46.652;21.272;2023-02-18T03:17:46;13.27;;;9.32;;
71513;SDS011;59335;46.652;21.272;2023-02-18T03:21:18;13.77;;;9.05;;
71513;SDS011;59335;46.652;21.272;2023-02-18T03:24:33;13.63;;;8.88;;
71513;SDS011;59335;46.652;21.272;2023-02-18T03:27:52;13.50;;;9.33;;
71513;SDS011;59335;46.652;21.272;2023-02-18T03:31:07;13.82;;;9.02;;
71513;SDS011;59335;46.652;21.272;2023-02-18T03:34:15;12.63;;;9.30;;
71513;SDS011;59335;46.652;21.272;2023-02-18T03:37:24;13.93;;;8.95;;
71513;SDS011;59335;46.652;21.272;2023-02-18T03:40:29;12.63;;;8.98;;
71513;SDS011;59335;46.652;21.272;2023-02-18T03:43:32;12.13;;;8.53;;
71513;SDS011;59335;46.652;21.272;2023-02-18T03:46:36;15.52;;;8.73;;
71513;SDS011;59335;46.652;21.272;2023-02-18T03:49:40;12.93;;;9.00;;
71513;SDS011;59335;46.652;21.272;2023-02-18T03:52:43;12.77;;;8.43;;
71513;SDS011;59335;46.652;21.272;2023-02-18T03:55:46;13.10;;;8.98;;
71513;SDS011;59335;46.652;21.272;2023-02-18T03:58:49;12.50;;;9.23;;
71513;SDS011;59335;46.652;21.272;2023-02-18T04:01:52;14.80;;;8.98;;
71513;SDS011;59335;46.652;21.272;2023-02-18T04:04:54;12.68;;;9.20;;
71513;SDS011;59335;46.652;21.272;2023-02-18T04:07:57;11.90;;;8.57;;
71513;SDS011;59335;46.652;21.272;2023-02-18T04:11:00;12.65;;;8.60;;
71513;SDS011;59335;46.652;21.272;2023-02-18T04:14:04;11.83;;;8.43;;
71513;SDS011;59335;46.652;21.272;2023-02-18T04:17:08;13.07;;;8.73;;
71513;SDS011;59335;46.652;21.272;2023-02-18T04:20:16;13.80;;;9.18;;
71513;SDS011;59335;46.652;21.272;2023-02-18T04:23:19;12.15;;;8.65;;
71513;SDS011;59335;46.652;21.272;2023-02-18T04:26:22;13.20;;;8.75;;
71513;SDS011;59335;46.652;21.272;2023-02-18T04:29:25;12.70;;;8.33;;
71513;SDS011;59335;46.652;21.272;2023-02-18T04:32:28;12.90;;;8.45;;
71513;SDS011;59335;46.652;21.272;2023-02-18T04:35:31;12.60;;;8.63;;
71513;SDS011;59335;46.652;21.272;2023-02-18T04:38:33;12.10;;;8.27;;
71513;SDS011;59335;46.652;21.272;2023-02-18T04:41:36;11.85;;;8.48;;
71513;SDS011;59335;46.652;21.272;2023-02-18T04:44:39;11.17;;;7.53;;
71513;SDS011;59335;46.652;21.272;2023-02-18T04:47:42;13.73;;;8.70;;
71513;SDS011;59335;46.652;21.272;2023-02-18T04:50:45;13.05;;;8.50;;
71513;SDS011;59335;46.652;21.272;2023-02-18T04:53:48;11.82;;;8.10;;
71513;SDS011;59335;46.652;21.272;2023-02-18T04:56:51;11.48;;;8.10;;
71513;SDS011;59335;46.652;21.272;2023-02-18T04:59:54;12.33;;;8.57;;
71513;SDS011;59335;46.652;21.272;2023-02-18T05:02:56;11.65;;;8.18;;
71513;SDS011;59335;46.652;21.272;2023-02-18T05:05:59;11.60;;;8.30;;
71513;SDS011;59335;46.652;21.272;2023-02-18T05:09:02;12.32;;;8.20;;
71513;SDS011;59335;46.652;21.272;2023-02-18T05:12:05;12.35;;;8.30;;
71513;SDS011;59335;46.652;21.272;2023-02-18T05:15:08;12.03;;;7.70;;
71513;SDS011;59335;46.652;21.272;2023-02-18T05:18:11;11.63;;;7.90;;
71513;SDS011;59335;46.652;21.272;2023-02-18T05:21:13;13.02;;;8.13;;
71513;SDS011;59335;46.652;21.272;2023-02-18T05:24:16;12.25;;;8.05;;
71513;SDS011;59335;46.652;21.272;2023-02-18T05:27:19;13.05;;;8.73;;
71513;SDS011;59335;46.652;21.272;2023-02-18T05:30:22;12.53;;;8.23;;
71513;SDS011;59335;46.652;21.272;2023-02-18T05:33:25;11.38;;;7.88;;
71513;SDS011;59335;46.652;21.272;2023-02-18T05:36:28;11.93;;;8.10;;
71513;SDS011;59335;46.652;21.272;2023-02-18T05:39:31;14.10;;;8.70;;
71513;SDS011;59335;46.652;21.272;2023-02-18T05:42:33;13.27;;;7.70;;
71513;SDS011;59335;46.652;21.272;2023-02-18T05:45:37;12.57;;;8.40;;
71513;SDS011;59335;46.652;21.272;2023-02-18T05:48:40;12.85;;;8.52;;
71513;SDS011;59335;46.652;21.272;2023-02-18T05:51:45;11.57;;;8.07;;
71513;SDS011;59335;46.652;21.272;2023-02-18T05:54:48;11.25;;;7.97;;
71513;SDS011;59335;46.652;21.272;2023-02-18T05:57:50;12.40;;;8.15;;
71513;SDS011;59335;46.652;21.272;2023-02-18T06:00:53;13.07;;;8.20;;
71513;SDS011;59335;46.652;21.272;2023-02-18T06:03:56;12.77;;;8.00;;
71513;SDS011;59335;46.652;21.272;2023-02-18T06:06:58;13.15;;;8.15;;
71513;SDS011;59335;46.652;21.272;2023-02-18T06:10:02;11.13;;;7.60;;
71513;SDS011;59335;46.652;21.272;2023-02-18T06:13:05;11.57;;;8.15;;
71513;SDS011;59335;46.652;21.272;2023-02-18T06:16:08;12.53;;;8.17;;
71513;SDS011;59335;46.652;21.272;2023-02-18T06:19:11;13.13;;;7.97;;
71513;SDS011;59335;46.652;21.272;2023-02-18T06:22:14;11.77;;;8.02;;
71513;SDS011;59335;46.652;21.272;2023-02-18T06:25:16;10.68;;;7.50;;
71513;SDS011;59335;46.652;21.272;2023-02-18T06:28:19;11.98;;;8.05;;
71513;SDS011;59335;46.652;21.272;2023-02-18T06:31:22;10.83;;;7.87;;
71513;SDS011;59335;46.652;21.272;2023-02-18T06:34:25;11.65;;;7.50;;
71513;SDS011;59335;46.652;21.272;2023-02-18T06:37:29;11.73;;;7.88;;
71513;SDS011;59335;46.652;21.272;2023-02-18T06:40:32;11.88;;;7.78;;
71513;SDS011;59335;46.652;21.272;2023-02-18T06:43:34;11.73;;;8.15;;
71513;SDS011;59335;46.652;21.272;2023-02-18T06:46:37;10.77;;;8.00;;
71513;SDS011;59335;46.652;21.272;2023-02-18T06:49:40;10.90;;;7.82;;
71513;SDS011;59335;46.652;21.272;2023-02-18T06:52:43;10.73;;;8.07;;
71513;SDS011;59335;46.652;21.272;2023-02-18T06:55:46;11.25;;;7.80;;
71513;SDS011;59335;46.652;21.272;2023-02-18T06:58:49;11.23;;;7.53;;
71513;SDS011;59335;46.652;21.272;2023-02-18T07:01:51;11.17;;;7.83;;
71513;SDS011;59335;46.652;21.272;2023-02-18T07:04:54;12.27;;;7.65;;
71513;SDS011;59335;46.652;21.272;2023-02-18T07:07:57;11.38;;;8.13;;
71513;SDS011;59335;46.652;21.272;2023-02-18T07:11:00;11.65;;;8.13;;
71513;SDS011;59335;46.652;21.272;2023-02-18T07:14:03;11.43;;;8.77;;
71513;SDS011;59335;46.652;21.272;2023-02-18T07:17:07;11.17;;;7.47;;
71513;SDS011;59335;46.652;21.272;2023-02-18T07:20:11;10.73;;;7.55;;
71513;SDS011;59335;46.652;21.272;2023-02-18T07:23:14;10.38;;;7.50;;
71513;SDS011;59335;46.652;21.272;2023-02-18T07:26:17;10.40;;;7.30;;
71513;SDS011;59335;46.652;21.272;2023-02-18T07:29:19;10.95;;;7.68;;
71513;SDS011;59335;46.652;21.272;2023-02-18T07:32:22;10.57;;;7.17;;
71513;SDS011;59335;46.652;21.272;2023-02-18T07:35:26;10.52;;;7.20;;
71513;SDS011;59335;46.652;21.272;2023-02-18T07:38:29;9.82;;;7.15;;
71513;SDS011;59335;46.652;21.272;2023-02-18T07:41:32;11.65;;;8.20;;
71513;SDS011;59335;46.652;21.272;2023-02-18T07:44:35;10.40;;;7.40;;
71513;SDS011;59335;46.652;21.272;2023-02-18T07:47:39;12.37;;;7.97;;
71513;SDS011;59335;46.652;21.272;2023-02-18T07:50:43;10.57;;;7.13;;
71513;SDS011;59335;46.652;21.272;2023-02-18T07:53:48;11.57;;;8.00;;
71513;SDS011;59335;46.652;21.272;2023-02-18T07:56:51;10.98;;;7.57;;
71513;SDS011;59335;46.652;21.272;2023-02-18T07:59:56;11.15;;;7.72;;
71513;SDS011;59335;46.652;21.272;2023-02-18T08:02:58;10.93;;;7.70;;
71513;SDS011;59335;46.652;21.272;2023-02-18T08:06:02;10.80;;;7.30;;
71513;SDS011;59335;46.652;21.272;2023-02-18T08:09:06;11.05;;;7.47;;
71513;SDS011;59335;46.652;21.272;2023-02-18T08:12:09;10.35;;;6.95;;
71513;SDS011;59335;46.652;21.272;2023-02-18T08:15:12;10.43;;;7.40;;
71513;SDS011;59335;46.652;21.272;2023-02-18T08:18:16;11.13;;;7.30;;
71513;SDS011;59335;46.652;21.272;2023-02-18T08:21:22;10.27;;;7.07;;
71513;SDS011;59335;46.652;21.272;2023-02-18T08:24:26;10.90;;;7.53;;
71513;SDS011;59335;46.652;21.272;2023-02-18T08:27:29;10.55;;;7.57;;
71513;SDS011;59335;46.652;21.272;2023-02-18T08:30:33;10.43;;;6.63;;
71513;SDS011;59335;46.652;21.272;2023-02-18T08:33:35;11.43;;;7.73;;
71513;SDS011;59335;46.652;21.272;2023-02-18T08:36:38;11.70;;;7.53;;
71513;SDS011;59335;46.652;21.272;2023-02-18T08:39:41;11.35;;;7.60;;
71513;SDS011;59335;46.652;21.272;2023-02-18T08:42:44;10.88;;;7.45;;
71513;SDS011;59335;46.652;21.272;2023-02-18T08:45:46;10.15;;;6.72;;
71513;SDS011;59335;46.652;21.272;2023-02-18T08:48:50;11.30;;;7.13;;
71513;SDS011;59335;46.652;21.272;2023-02-18T08:51:53;10.70;;;6.78;;
71513;SDS011;59335;46.652;21.272;2023-02-18T08:54:56;10.27;;;7.10;;
71513;SDS011;59335;46.652;21.272;2023-02-18T08:57:59;10.00;;;7.05;;
71513;SDS011;59335;46.652;21.272;2023-02-18T09:01:06;10.02;;;7.35;;
71513;SDS011;59335;46.652;21.272;2023-02-18T09:04:11;10.70;;;6.87;;
71513;SDS011;59335;46.652;21.272;2023-02-18T09:07:14;10.02;;;7.00;;
71513;SDS011;59335;46.652;21.272;2023-02-18T09:10:17;10.50;;;7.38;;
71513;SDS011;59335;46.652;21.272;2023-02-18T09:13:20;10.43;;;6.55;;
71513;SDS011;59335;46.652;21.272;2023-02-18T09:16:23;9.82;;;6.90;;
71513;SDS011;59335;46.652;21.272;2023-02-18T09:19:27;9.97;;;6.90;;
71513;SDS011;59335;46.652;21.272;2023-02-18T09:22:30;9.90;;;6.40;;
71513;SDS011;59335;46.652;21.272;2023-02-18T09:25:34;10.63;;;6.82;;
71513;SDS011;59335;46.652;21.272;2023-02-18T09:28:36;9.52;;;6.53;;
71513;SDS011;59335;46.652;21.272;2023-02-18T09:31:39;10.02;;;7.15;;
71513;SDS011;59335;46.652;21.272;2023-02-18T09:34:42;9.13;;;6.73;;
71513;SDS011;59335;46.652;21.272;2023-02-18T09:37:47;10.88;;;7.20;;
71513;SDS011;59335;46.652;21.272;2023-02-18T09:40:51;10.05;;;6.97;;
71513;SDS011;59335;46.652;21.272;2023-02-18T09:44:02;11.65;;;6.70;;
71513;SDS011;59335;46.652;21.272;2023-02-18T09:47:18;9.85;;;6.82;;
71513;SDS011;59335;46.652;21.272;2023-02-18T09:50:37;9.43;;;6.70;;
71513;SDS011;59335;46.652;21.272;2023-02-18T09:53:40;9.27;;;6.35;;
71513;SDS011;59335;46.652;21.272;2023-02-18T09:56:47;10.10;;;6.80;;
71513;SDS011;59335;46.652;21.272;2023-02-18T10:00:03;10.65;;;6.60;;
71513;SDS011;59335;46.652;21.272;2023-02-18T10:03:21;9.55;;;6.68;;
71513;SDS011;59335;46.652;21.272;2023-02-18T10:06:31;10.37;;;6.93;;
71513;SDS011;59335;46.652;21.272;2023-02-18T10:09:36;9.38;;;6.47;;
71513;SDS011;59335;46.652;21.272;2023-02-18T10:12:43;9.95;;;7.00;;
71513;SDS011;59335;46.652;21.272;2023-02-18T10:15:47;10.27;;;6.88;;
71513;SDS011;59335;46.652;21.272;2023-02-18T10:19:03;9.70;;;6.88;;
71513;SDS011;59335;46.652;21.272;2023-02-18T10:22:22;10.53;;;6.70;;
71513;SDS011;59335;46.652;21.272;2023-02-18T10:25:27;11.02;;;6.95;;
71513;SDS011;59335;46.652;21.272;2023-02-18T10:28:31;9.63;;;6.72;;
71513;SDS011;59335;46.652;21.272;2023-02-18T10:31:36;10.15;;;6.45;;
71513;SDS011;59335;46.652;21.272;2023-02-18T10:34:46;9.90;;;6.55;;
71513;SDS011;59335;46.652;21.272;2023-02-18T10:51:14;9.50;;;6.30;;
71513;SDS011;59335;46.652;21.272;2023-02-18T10:54:24;9.07;;;6.30;;
71513;SDS011;59335;46.652;21.272;2023-02-18T10:57:28;10.30;;;6.20;;
71513;SDS011;59335;46.652;21.272;2023-02-18T11:00:35;9.80;;;6.95;;
71513;SDS011;59335;46.652;21.272;2023-02-18T11:03:43;11.02;;;6.80;;
71513;SDS011;59335;46.652;21.272;2023-02-18T11:06:50;10.80;;;6.72;;
71513;SDS011;59335;46.652;21.272;2023-02-18T11:09:54;8.97;;;6.40;;
71513;SDS011;59335;46.652;21.272;2023-02-18T11:13:01;8.93;;;6.18;;
71513;SDS011;59335;46.652;21.272;2023-02-18T11:16:06;10.32;;;6.70;;
71513;SDS011;59335;46.652;21.272;2023-02-18T11:22:34;9.38;;;6.10;;
71513;SDS011;59335;46.652;21.272;2023-02-18T11:25:51;8.87;;;6.23;;
71513;SDS011;59335;46.652;21.272;2023-02-18T11:28:59;8.93;;;6.07;;
71513;SDS011;59335;46.652;21.272;2023-02-18T11:32:05;9.13;;;6.38;;
71513;SDS011;59335;46.652;21.272;2023-02-18T11:35:21;10.23;;;6.78;;
71513;SDS011;59335;46.652;21.272;2023-02-18T11:38:33;8.73;;;6.60;;
71513;SDS011;59335;46.652;21.272;2023-02-18T11:41:52;9.13;;;6.10;;
71513;SDS011;59335;46.652;21.272;2023-02-18T11:45:11;9.50;;;6.28;;
71513;SDS011;59335;46.652;21.272;2023-02-18T11:48:28;9.48;;;6.35;;
71513;SDS011;59335;46.652;21.272;2023-02-18T11:51:33;9.23;;;6.30;;
71513;SDS011;59335;46.652;21.272;2023-02-18T11:54:40;9.60;;;6.20;;
71513;SDS011;59335;46.652;21.272;2023-02-18T11:57:48;8.80;;;5.80;;
71513;SDS011;59335;46.652;21.272;2023-02-18T12:00:56;9.70;;;6.22;;
71513;SDS011;59335;46.652;21.272;2023-02-18T12:04:07;9.65;;;6.55;;
71513;SDS011;59335;46.652;21.272;2023-02-18T12:10:50;9.77;;;6.03;;
71513;SDS011;59335;46.652;21.272;2023-02-18T12:14:08;9.10;;;5.83;;
71513;SDS011;59335;46.652;21.272;2023-02-18T12:17:26;9.05;;;5.72;;
71513;SDS011;59335;46.652;21.272;2023-02-18T12:21:08;9.60;;;6.38;;
71513;SDS011;59335;46.652;21.272;2023-02-18T12:27:28;9.18;;;6.10;;
71513;SDS011;59335;46.652;21.272;2023-02-18T12:34:18;8.63;;;5.82;;
71513;SDS011;59335;46.652;21.272;2023-02-18T12:54:30;9.23;;;5.95;;
71513;SDS011;59335;46.652;21.272;2023-02-18T13:01:27;8.95;;;5.93;;
71513;SDS011;59335;46.652;21.272;2023-02-18T13:04:43;8.87;;;6.00;;
71513;SDS011;59335;46.652;21.272;2023-02-18T13:14:15;8.73;;;5.97;;
71513;SDS011;59335;46.652;21.272;2023-02-18T13:17:26;8.55;;;6.03;;
71513;SDS011;59335;46.652;21.272;2023-02-18T13:20:34;9.20;;;5.70;;
71513;SDS011;59335;46.652;21.272;2023-02-18T13:26:49;8.57;;;5.78;;
71513;SDS011;59335;46.652;21.272;2023-02-18T13:33:18;9.35;;;6.10;;
71513;SDS011;59335;46.652;21.272;2023-02-18T13:40:25;9.30;;;6.28;;
71513;SDS011;59335;46.652;21.272;2023-02-18T13:43:33;9.50;;;6.10;;
71513;SDS011;59335;46.652;21.272;2023-02-18T13:46:55;10.35;;;6.13;;
71513;SDS011;59335;46.652;21.272;2023-02-18T13:50:12;8.90;;;5.75;;
71513;SDS011;59335;46.652;21.272;2023-02-18T13:53:24;8.77;;;5.63;;
71513;SDS011;59335;46.652;21.272;2023-02-18T13:56:32;9.07;;;5.72;;
71513;SDS011;59335;46.652;21.272;2023-02-18T13:59:41;9.05;;;5.90;;
71513;SDS011;59335;46.652;21.272;2023-02-18T14:02:54;8.52;;;5.78;;
71513;SDS011;59335;46.652;21.272;2023-02-18T14:05:59;9.20;;;6.03;;
71513;SDS011;59335;46.652;21.272;2023-02-18T14:12:27;8.65;;;6.03;;
71513;SDS011;59335;46.652;21.272;2023-02-18T14:15:51;8.88;;;5.80;;
71513;SDS011;59335;46.652;21.272;2023-02-18T14:18:57;8.77;;;5.45;;
71513;SDS011;59335;46.652;21.272;2023-02-18T14:34:51;8.27;;;5.53;;
71513;SDS011;59335;46.652;21.272;2023-02-18T14:38:17;8.90;;;5.90;;
71513;SDS011;59335;46.652;21.272;2023-02-18T14:51:28;9.35;;;5.90;;
71513;SDS011;59335;46.652;21.272;2023-02-18T14:54:33;8.10;;;5.50;;
71513;SDS011;59335;46.652;21.272;2023-02-18T14:57:48;10.07;;;5.73;;
71513;SDS011;59335;46.652;21.272;2023-02-18T15:00:54;8.23;;;5.47;;
71513;SDS011;59335;46.652;21.272;2023-02-18T15:04:00;8.63;;;5.88;;
71513;SDS011;59335;46.652;21.272;2023-02-18T15:07:08;8.15;;;5.35;;
71513;SDS011;59335;46.652;21.272;2023-02-18T15:10:14;9.00;;;5.80;;
71513;SDS011;59335;46.652;21.272;2023-02-18T15:16:31;8.57;;;6.07;;
71513;SDS011;59335;46.652;21.272;2023-02-18T15:19:40;8.48;;;5.72;;
71513;SDS011;59335;46.652;21.272;2023-02-18T15:22:47;9.13;;;5.38;;
71513;SDS011;59335;46.652;21.272;2023-02-18T15:25:50;9.73;;;5.95;;
71513;SDS011;59335;46.652;21.272;2023-02-18T15:28:59;8.60;;;5.60;;
71513;SDS011;59335;46.652;21.272;2023-02-18T15:32:19;8.65;;;5.45;;
71513;SDS011;59335;46.652;21.272;2023-02-18T15:35:27;8.25;;;5.75;;
71513;SDS011;59335;46.652;21.272;2023-02-18T15:38:33;8.63;;;5.93;;
71513;SDS011;59335;46.652;21.272;2023-02-18T15:41:39;9.30;;;5.93;;
71513;SDS011;59335;46.652;21.272;2023-02-18T15:44:47;8.27;;;5.27;;
71513;SDS011;59335;46.652;21.272;2023-02-18T15:47:53;8.35;;;5.30;;
71513;SDS011;59335;46.652;21.272;2023-02-18T15:51:01;8.57;;;5.60;;
71513;SDS011;59335;46.652;21.272;2023-02-18T15:54:19;8.00;;;5.25;;
71513;SDS011;59335;46.652;21.272;2023-02-18T15:57:25;8.32;;;5.45;;
71513;SDS011;59335;46.652;21.272;2023-02-18T16:00:36;7.77;;;5.43;;
71513;SDS011;59335;46.652;21.272;2023-02-18T16:03:45;7.82;;;5.22;;
71513;SDS011;59335;46.652;21.272;2023-02-18T16:06:50;8.43;;;5.40;;
71513;SDS011;59335;46.652;21.272;2023-02-18T16:10:16;8.05;;;5.47;;
71513;SDS011;59335;46.652;21.272;2023-02-18T16:13:26;8.40;;;5.60;;
71513;SDS011;59335;46.652;21.272;2023-02-18T16:16:35;8.43;;;5.17;;
71513;SDS011;59335;46.652;21.272;2023-02-18T16:19:48;7.90;;;5.63;;
71513;SDS011;59335;46.652;21.272;2023-02-18T16:23:11;8.38;;;5.85;;
71513;SDS011;59335;46.652;21.272;2023-02-18T16:26:26;8.55;;;5.20;;
71513;SDS011;59335;46.652;21.272;2023-02-18T16:29:45;8.55;;;5.45;;
71513;SDS011;59335;46.652;21.272;2023-02-18T16:32:53;8.53;;;5.47;;
71513;SDS011;59335;46.652;21.272;2023-02-18T16:35:59;7.85;;;5.15;;
71513;SDS011;59335;46.652;21.272;2023-02-18T16:39:03;8.70;;;5.50;;
71513;SDS011;59335;46.652;21.272;2023-02-18T16:42:10;8.05;;;5.20;;
71513;SDS011;59335;46.652;21.272;2023-02-18T16:45:15;8.00;;;5.40;;
71513;SDS011;59335;46.652;21.272;2023-02-18T16:48:25;7.67;;;5.10;;
71513;SDS011;59335;46.652;21.272;2023-02-18T16:51:33;8.32;;;5.10;;
71513;SDS011;59335;46.652;21.272;2023-02-18T16:54:37;8.80;;;5.70;;
71513;SDS011;59335;46.652;21.272;2023-02-18T16:57:41;7.78;;;4.80;;
71513;SDS011;59335;46.652;21.272;2023-02-18T17:00:44;9.05;;;5.78;;
71513;SDS011;59335;46.652;21.272;2023-02-18T17:03:51;7.87;;;5.30;;
71513;SDS011;59335;46.652;21.272;2023-02-18T17:06:55;9.00;;;5.50;;
71513;SDS011;59335;46.652;21.272;2023-02-18T17:09:59;8.70;;;5.95;;
71513;SDS011;59335;46.652;21.272;2023-02-18T17:13:03;8.88;;;5.93;;
71513;SDS011;59335;46.652;21.272;2023-02-18T17:16:07;8.98;;;5.93;;
71513;SDS011;59335;46.652;21.272;2023-02-18T17:19:14;8.87;;;5.60;;
71513;SDS011;59335;46.652;21.272;2023-02-18T17:22:17;8.00;;;5.38;;
71513;SDS011;59335;46.652;21.272;2023-02-18T17:25:22;8.00;;;4.95;;
71513;SDS011;59335;46.652;21.272;2023-02-18T17:28:31;9.00;;;5.40;;
71513;SDS011;59335;46.652;21.272;2023-02-18T17:31:41;8.68;;;5.72;;
71513;SDS011;59335;46.652;21.272;2023-02-18T17:34:50;7.63;;;4.80;;
71513;SDS011;59335;46.652;21.272;2023-02-18T17:37:53;8.57;;;5.20;;
71513;SDS011;59335;46.652;21.272;2023-02-18T17:40:57;6.97;;;4.93;;
71513;SDS011;59335;46.652;21.272;2023-02-18T17:44:01;8.57;;;5.78;;
71513;SDS011;59335;46.652;21.272;2023-02-18T17:47:06;8.65;;;5.40;;
71513;SDS011;59335;46.652;21.272;2023-02-18T17:50:11;8.03;;;5.30;;
71513;SDS011;59335;46.652;21.272;2023-02-18T17:53:15;7.45;;;5.30;;
71513;SDS011;59335;46.652;21.272;2023-02-18T17:56:20;8.10;;;5.35;;
71513;SDS011;59335;46.652;21.272;2023-02-18T17:59:25;7.53;;;5.13;;
71513;SDS011;59335;46.652;21.272;2023-02-18T18:02:35;7.82;;;5.10;;
71513;SDS011;59335;46.652;21.272;2023-02-18T18:05:40;7.93;;;5.30;;
71513;SDS011;59335;46.652;21.272;2023-02-18T18:08:46;8.10;;;5.10;;
71513;SDS011;59335;46.652;21.272;2023-02-18T18:11:51;8.27;;;5.13;;
71513;SDS011;59335;46.652;21.272;2023-02-18T18:14:55;7.35;;;4.85;;
71513;SDS011;59335;46.652;21.272;2023-02-18T18:17:59;8.43;;;5.50;;
71513;SDS011;59335;46.652;21.272;2023-02-18T18:21:05;8.10;;;4.80;;
71513;SDS011;59335;46.652;21.272;2023-02-18T18:24:17;7.30;;;5.00;;
71513;SDS011;59335;46.652;21.272;2023-02-18T18:27:35;7.35;;;5.18;;
71513;SDS011;59335;46.652;21.272;2023-02-18T18:30:41;7.38;;;4.95;;
71513;SDS011;59335;46.652;21.272;2023-02-18T18:33:48;7.70;;;4.95;;
71513;SDS011;59335;46.652;21.272;2023-02-18T18:36:55;8.13;;;5.10;;
71513;SDS011;59335;46.652;21.272;2023-02-18T18:40:00;7.63;;;5.13;;
71513;SDS011;59335;46.652;21.272;2023-02-18T18:43:04;8.05;;;5.40;;
71513;SDS011;59335;46.652;21.272;2023-02-18T18:46:10;8.93;;;5.65;;
71513;SDS011;59335;46.652;21.272;2023-02-18T18:49:14;7.80;;;5.25;;
71513;SDS011;59335;46.652;21.272;2023-02-18T18:52:20;7.67;;;5.03;;
71513;SDS011;59335;46.652;21.272;2023-02-18T18:55:29;9.00;;;5.10;;
71513;SDS011;59335;46.652;21.272;2023-02-18T18:58:38;7.85;;;5.10;;
71513;SDS011;59335;46.652;21.272;2023-02-18T19:01:42;8.02;;;5.18;;
71513;SDS011;59335;46.652;21.272;2023-02-18T19:04:50;7.90;;;4.80;;
71513;SDS011;59335;46.652;21.272;2023-02-18T19:07:55;7.53;;;5.00;;
71513;SDS011;59335;46.652;21.272;2023-02-18T19:11:02;7.95;;;5.03;;
71513;SDS011;59335;46.652;21.272;2023-02-18T19:14:07;8.35;;;5.22;;
71513;SDS011;59335;46.652;21.272;2023-02-18T19:17:14;7.70;;;5.15;;
71513;SDS011;59335;46.652;21.272;2023-02-18T19:20:20;8.70;;;5.35;;
71513;SDS011;59335;46.652;21.272;2023-02-18T19:23:26;8.43;;;5.20;;
71513;SDS011;59335;46.652;21.272;2023-02-18T19:26:31;7.88;;;5.22;;
71513;SDS011;59335;46.652;21.272;2023-02-18T19:29:35;7.95;;;4.95;;
71513;SDS011;59335;46.652;21.272;2023-02-18T19:32:40;8.05;;;5.13;;
71513;SDS011;59335;46.652;21.272;2023-02-18T19:35:45;8.25;;;5.00;;
71513;SDS011;59335;46.652;21.272;2023-02-18T19:38:49;7.73;;;4.87;;
71513;SDS011;59335;46.652;21.272;2023-02-18T19:41:53;7.57;;;5.22;;
71513;SDS011;59335;46.652;21.272;2023-02-18T19:44:58;7.72;;;5.07;;
71513;SDS011;59335;46.652;21.272;2023-02-18T19:48:04;8.07;;;5.03;;
71513;SDS011;59335;46.652;21.272;2023-02-18T19:51:08;7.13;;;4.72;;
71513;SDS011;59335;46.652;21.272;2023-02-18T19:54:13;8.63;;;5.30;;
71513;SDS011;59335;46.652;21.272;2023-02-18T19:57:18;7.72;;;5.00;;
71513;SDS011;59335;46.652;21.272;2023-02-18T20:00:23;9.43;;;5.57;;
71513;SDS011;59335;46.652;21.272;2023-02-18T20:03:31;7.85;;;5.00;;
71513;SDS011;59335;46.652;21.272;2023-02-18T20:06:38;7.43;;;4.80;;
71513;SDS011;59335;46.652;21.272;2023-02-18T20:09:45;8.03;;;5.43;;
71513;SDS011;59335;46.652;21.272;2023-02-18T20:12:54;7.78;;;5.05;;
71513;SDS011;59335;46.652;21.272;2023-02-18T20:16:00;7.18;;;5.13;;
71513;SDS011;59335;46.652;21.272;2023-02-18T20:19:09;7.93;;;4.93;;
71513;SDS011;59335;46.652;21.272;2023-02-18T20:22:13;7.55;;;5.03;;
71513;SDS011;59335;46.652;21.272;2023-02-18T20:25:18;7.77;;;5.30;;